Ora Direzione Vento Velocita' Vento Media Vento Raffica Max. Temperatura Wind Chill Pioggia Pressione
20:44:51.0289 °(WNW)1.3 Kts1.16 Kts12.1 Kts20.7 °C22.41 °C0.0 mm0.0 Hpa
20:24:31.0289 °(WNW)2.3 Kts1.86 Kts12.1 Kts21.3 °C22.7 °C0.0 mm0.0 Hpa
20:04:21.0287 °(WNW)3.3 Kts1.7 Kts12.1 Kts22.0 °C23.3 °C0.0 mm0.0 Hpa
19:44:05.0295 °(WNW)3.4 Kts3.03 Kts12.1 Kts22.5 °C23.84 °C0.0 mm0.0 Hpa
19:24:47.0307 °(NW)2.1 Kts1.46 Kts12.1 Kts23.3 °C24.98 °C0.0 mm0.0 Hpa
19:04:22.0258 °(WSW)1.3 Kts2.06 Kts12.1 Kts23.6 °C25.52 °C0.0 mm0.0 Hpa
18:44:06.0269 °(W)3.8 Kts3.5 Kts12.1 Kts23.7 °C25.16 °C0.0 mm0.0 Hpa
18:24:51.0295 °(WNW)5.0 Kts5.1 Kts12.1 Kts23.6 °C24.95 °C0.0 mm0.0 Hpa
18:04:30.0312 °(NW)5.1 Kts5.23 Kts12.1 Kts23.7 °C25.06 °C0.0 mm0.0 Hpa
17:44:10.0319 °(NW)3.0 Kts5.06 Kts12.1 Kts24.0 °C25.62 °C0.0 mm0.0 Hpa
17:23:49.0280 °(W)5.5 Kts5.46 Kts12.1 Kts24.5 °C25.96 °C0.0 mm0.0 Hpa
17:04:34.0263 °(W)6.2 Kts3.73 Kts12.1 Kts24.8 °C26.27 °C0.0 mm0.0 Hpa
16:44:11.0257 °(WSW)6.5 Kts4.06 Kts12.1 Kts24.7 °C26.15 °C0.0 mm0.0 Hpa
16:23:49.0250 °(WSW)6.2 Kts6.96 Kts12.1 Kts24.5 °C25.91 °C0.0 mm0.0 Hpa
16:04:36.0242 °(WSW)7.8 Kts8.23 Kts12.1 Kts25.0 °C26.44 °C0.0 mm0.0 Hpa
15:44:24.0222 °(SW)7.6 Kts9.56 Kts12.1 Kts24.7 °C26.07 °C0.0 mm0.0 Hpa
15:24:05.0225 °(SW)7.7 Kts8.3 Kts10.1 Kts24.8 °C26.19 °C0.0 mm0.0 Hpa
15:03:46.0232 °(SW)6.7 Kts7.66 Kts9.7 Kts25.2 °C26.72 °C0.0 mm0.0 Hpa
14:44:50.0216 °(SW)5.4 Kts5.93 Kts9.5 Kts25.2 °C26.82 °C0.0 mm0.0 Hpa
14:23:55.0244 °(WSW)7.6 Kts7.5 Kts8.4 Kts25.3 °C26.81 °C0.0 mm0.0 Hpa